Time;durP1;ratioP1;P1;durP2;ratioP2;P2;SDS_P1;SDS_P2;PMS_P1;PMS_P2;Temp;Humidity;BMP_temperature;BMP_pressure;BME280_temperature;BME280_humidity;BME280_pressure;Samples;Min_cycle;Max_cycle;Signal;HPM_P1;HPM_P2
2023/09/17 00:06:41;;;;;;;13.57;8.27;;;;;;;19.98;95.51;101133.31;31477711;28;20055;-82
2023/09/17 00:21:43;;;;;;;13.37;8.90;;;;;;;19.90;98.03;101127.31;31477023;28;20486;-82
2023/09/17 00:36:46;;;;;;;14.30;8.83;;;;;;;19.87;98.70;101121.97;31470175;28;20053;-82
2023/09/17 00:51:48;;;;;;;14.10;8.80;;;;;;;19.77;100.00;101118.44;31471740;28;20132;-82
2023/09/17 01:06:52;;;;;;;18.70;9.57;;;;;;;19.63;100.00;101110.75;31477706;28;20049;-82
2023/09/17 01:22:11;;;;;;;18.10;10.13;;;;;;;19.59;100.00;101112.91;31492781;28;20417;-83
2023/09/17 01:37:23;;;;;;;16.97;9.30;;;;;;;19.50;100.00;101112.84;31486877;28;20060;-82
2023/09/17 01:52:26;;;;;;;17.67;10.37;;;;;;;19.40;100.00;101101.81;31515511;28;20044;-81
2023/09/17 02:07:28;;;;;;;14.57;8.57;;;;;;;19.34;100.00;101087.13;31493317;28;20052;-82
2023/09/17 02:22:30;;;;;;;16.87;8.43;;;;;;;19.24;100.00;101096.56;31488372;28;20079;-82
2023/09/17 02:37:33;;;;;;;17.43;8.87;;;;;;;19.13;100.00;101093.47;31489082;28;20057;-83
2023/09/17 02:52:35;;;;;;;15.00;9.17;;;;;;;19.26;100.00;101088.63;31484314;28;20080;-82
2023/09/17 03:07:37;;;;;;;14.50;9.27;;;;;;;19.15;100.00;101102.03;31485203;28;20065;-81
2023/09/17 03:22:43;;;;;;;16.80;10.17;;;;;;;19.32;100.00;101106.06;31488469;28;20051;-82
2023/09/17 03:37:46;;;;;;;15.07;9.10;;;;;;;19.35;100.00;101115.41;31474559;28;20087;-82
2023/09/17 03:52:53;;;;;;;13.87;8.93;;;;;;;19.50;100.00;101121.09;31472719;28;20097;-82
2023/09/17 04:07:55;;;;;;;16.97;9.77;;;;;;;19.71;100.00;101145.06;31480720;28;20067;-81
2023/09/17 04:22:58;;;;;;;20.42;11.70;;;;;;;20.03;100.00;101152.00;31467363;28;20048;-80
2023/09/17 04:38:00;;;;;;;15.43;10.40;;;;;;;20.54;100.00;101181.75;31459613;28;20064;-77
2023/09/17 04:53:02;;;;;;;19.35;12.05;;;;;;;21.26;95.78;101183.59;31472548;28;20097;-74
2023/09/17 05:08:05;;;;;;;15.30;8.73;;;;;;;21.80;93.50;101195.63;31475998;28;20525;-75
2023/09/17 05:23:07;;;;;;;17.05;8.73;;;;;;;22.58;89.27;101202.75;31502872;28;20036;-77
2023/09/17 05:38:09;;;;;;;12.40;8.32;;;;;;;23.41;86.60;101211.72;31509725;28;20089;-76
2023/09/17 05:53:11;;;;;;;13.38;8.85;;;;;;;24.70;80.79;101208.63;31497477;28;20049;-75
2023/09/17 06:08:13;;;;;;;14.00;8.02;;;;;;;26.03;74.15;101235.91;31487207;28;20049;-75
2023/09/17 06:23:15;;;;;;;11.05;6.57;;;;;;;27.14;65.83;101237.53;31490343;28;20385;-76
2023/09/17 06:38:17;;;;;;;12.10;7.17;;;;;;;27.94;61.58;101254.41;31488814;28;20133;-75
2023/09/17 06:53:19;;;;;;;11.63;6.53;;;;;;;28.96;57.08;101261.06;31487708;28;20387;-77
2023/09/17 07:08:21;;;;;;;8.73;5.97;;;;;;;29.43;54.28;101276.47;31471419;28;20446;-77
2023/09/17 07:23:23;;;;;;;8.17;5.87;;;;;;;30.22;51.32;101254.03;31473607;28;20086;-80
2023/09/17 07:38:25;;;;;;;7.95;5.70;;;;;;;30.79;49.78;101238.72;31483936;28;20713;-75
2023/09/17 07:53:28;;;;;;;10.85;5.65;;;;;;;31.66;46.59;101232.69;31472642;28;20044;-74
2023/09/17 08:08:32;;;;;;;6.50;4.05;;;;;;;32.04;44.96;101228.38;31474306;28;20048;-75
2023/09/17 08:23:34;;;;;;;7.68;5.07;;;;;;;32.74;42.47;101220.22;31470385;28;20040;-77
2023/09/17 08:38:36;;;;;;;7.25;4.03;;;;;;;32.78;42.44;101209.41;31463911;28;20110;-77
2023/09/17 08:53:44;;;;;;;7.45;4.30;;;;;;;33.40;39.59;101205.78;31513933;28;20075;-85
2023/09/17 09:08:48;;;;;;;5.95;4.10;;;;;;;33.88;38.31;101203.47;31487825;28;20421;-84
2023/09/17 09:23:50;;;;;;;8.57;4.20;;;;;;;34.28;37.48;101188.94;31473944;28;20059;-77
2023/09/17 09:38:55;;;;;;;8.18;4.03;;;;;;;34.72;36.78;101184.75;31477424;28;20084;-81
2023/09/17 09:53:57;;;;;;;12.18;4.20;;;;;;;35.10;34.73;101192.47;31477044;28;20055;-82
2023/09/17 10:09:02;;;;;;;5.63;3.45;;;;;;;34.87;34.77;101170.69;31495985;28;20052;-84
2023/09/17 10:24:06;;;;;;;6.30;3.80;;;;;;;35.07;35.29;101176.69;31492777;28;20431;-82
2023/09/17 10:39:10;;;;;;;11.23;4.25;;;;;;;35.39;34.55;101167.63;31522016;28;20063;-83
2023/09/17 10:54:13;;;;;;;4.88;3.50;;;;;;;35.23;34.68;101161.22;31513501;28;20403;-84
2023/09/17 11:09:17;;;;;;;5.30;3.85;;;;;;;34.81;34.71;101155.25;31505205;28;20145;-85
2023/09/17 11:24:19;;;;;;;4.55;3.60;;;;;;;36.11;32.21;101150.81;31511303;28;20059;-81
2023/09/17 11:39:22;;;;;;;9.10;5.20;;;;;;;36.19;32.76;101143.00;31511979;28;20506;-83
2023/09/17 11:54:30;;;;;;;5.10;3.75;;;;;;;35.02;33.19;101124.03;31516000;28;20048;-88
2023/09/17 12:25:13;;;;;;;7.07;5.03;;;;;;;30.66;37.40;101095.78;31501564;28;20468;-82
2023/09/17 12:40:15;;;;;;;6.82;4.78;;;;;;;30.11;37.87;101089.72;31493450;28;20056;-83
2023/09/17 12:55:18;;;;;;;6.45;4.32;;;;;;;30.08;38.34;101095.63;31495361;28;20135;-82
2023/09/17 13:10:21;;;;;;;4.60;3.75;;;;;;;29.93;39.03;101078.53;31491876;28;20045;-86
2023/09/17 13:25:26;;;;;;;8.25;4.47;;;;;;;29.39;39.79;101066.22;31515301;28;20037;-83
2023/09/17 13:40:28;;;;;;;;;;;;;;;29.38;39.47;101059.09;31496420;28;20056;-83
2023/09/17 13:55:30;;;;;;;6.53;5.10;;;;;;;29.26;40.32;101049.34;31537225;28;19920;-83
2023/09/17 14:10:33;;;;;;;7.90;5.30;;;;;;;29.23;40.59;101033.63;31537104;28;20053;-84
2023/09/17 14:25:35;;;;;;;9.18;5.60;;;;;;;28.93;40.95;101066.47;31531166;28;20105;-85
2023/09/17 14:40:37;;;;;;;17.40;9.33;;;;;;;28.84;41.36;101065.53;31534473;28;20049;-85
2023/09/17 14:55:40;;;;;;;8.53;6.67;;;;;;;28.70;41.21;101068.69;31595250;28;20289;-85
2023/09/17 15:10:43;;;;;;;7.35;4.30;;;;;;;28.48;41.54;101072.44;31559003;28;20052;-84
2023/09/17 15:25:45;;;;;;;9.10;4.85;;;;;;;28.26;42.03;101069.81;31543663;28;20055;-85
2023/09/17 15:40:51;;;;;;;7.20;5.23;;;;;;;27.96;42.74;101066.94;31500580;28;20060;-87
2023/09/17 15:55:55;;;;;;;6.80;4.97;;;;;;;27.69;43.50;101068.59;31505492;28;20070;-86
2023/09/17 16:10:59;;;;;;;18.00;6.70;;;;;;;27.40;44.92;101067.94;31523004;28;20121;-86
2023/09/17 16:26:04;;;;;;;10.15;5.40;;;;;;;27.03;45.49;101065.53;31501176;28;20413;-88
2023/09/17 16:41:13;;;;;;;10.03;6.00;;;;;;;26.81;46.30;101074.63;31478684;28;20076;-84
2023/09/17 16:56:16;;;;;;;9.10;6.20;;;;;;;26.80;46.37;101094.66;31506823;28;20048;-86
2023/09/17 17:11:19;;;;;;;61.80;33.87;;;;;;;26.55;47.38;101102.00;31484264;28;20049;-89
2023/09/17 17:26:21;;;;;;;15.07;10.63;;;;;;;26.31;48.62;101104.50;31505388;28;20055;-90
2023/09/17 17:41:24;;;;;;;20.03;9.50;;;;;;;26.06;49.56;101106.94;31497685;28;20071;-84
2023/09/17 17:56:26;;;;;;;18.07;10.53;;;;;;;25.91;50.65;101117.53;31497089;28;20048;-85
2023/09/17 18:11:28;;;;;;;20.25;13.23;;;;;;;25.58;52.60;101120.13;31516489;28;20110;-83
2023/09/17 18:26:30;;;;;;;20.45;9.23;;;;;;;25.40;54.38;101119.28;31505011;28;20040;-87
2023/09/17 18:41:32;;;;;;;17.95;12.57;;;;;;;25.14;56.24;101113.84;31502017;28;20048;-85
2023/09/17 18:56:34;;;;;;;20.25;11.35;;;;;;;24.97;57.81;101104.63;31490214;28;20080;-82
2023/09/17 19:11:36;;;;;;;20.13;10.23;;;;;;;24.69;59.68;101107.16;31494713;28;20060;-83
2023/09/17 19:26:38;;;;;;;22.17;13.45;;;;;;;24.40;61.34;101115.72;31482972;28;20140;-84
2023/09/17 19:41:40;;;;;;;15.20;9.45;;;;;;;24.13;63.15;101112.13;31480194;28;20084;-85
2023/09/17 19:56:45;;;;;;;15.75;9.27;;;;;;;24.12;62.78;101105.06;31474778;28;20560;-85
2023/09/17 20:11:48;;;;;;;13.90;8.68;;;;;;;24.00;64.44;101113.75;31493040;28;20086;-85
2023/09/17 20:26:50;;;;;;;11.73;7.50;;;;;;;23.82;64.76;101095.41;31484931;28;20064;-82
2023/09/17 20:41:52;;;;;;;12.85;7.80;;;;;;;23.62;65.95;101106.50;31484612;28;20044;-83
2023/09/17 20:56:56;;;;;;;13.30;7.90;;;;;;;23.39;67.47;101119.25;31509277;28;20052;-84
2023/09/17 21:11:58;;;;;;;13.95;8.57;;;;;;;23.45;68.35;101115.31;31510995;28;20053;-81
2023/09/17 21:27:03;;;;;;;19.45;8.13;;;;;;;23.53;69.02;101115.72;31491286;28;20060;-85
2023/09/17 21:42:05;;;;;;;14.43;8.38;;;;;;;23.48;69.60;101113.59;31492834;28;20459;-85
2023/09/17 21:57:16;;;;;;;12.18;8.43;;;;;;;23.37;70.60;101108.69;31541072;28;20053;-84
2023/09/17 22:12:18;;;;;;;14.65;8.50;;;;;;;23.39;70.61;101111.69;31498423;28;20052;-77
2023/09/17 22:27:20;;;;;;;15.68;7.93;;;;;;;23.29;71.50;101098.47;31490690;28;20513;-76
2023/09/17 22:42:22;;;;;;;33.67;18.77;;;;;;;22.87;73.62;101105.16;31479759;28;20113;-76
2023/09/17 22:57:24;;;;;;;14.85;9.55;;;;;;;22.30;77.46;101110.19;31486841;28;20052;-76
2023/09/17 23:12:26;;;;;;;14.98;8.65;;;;;;;22.12;79.16;101097.28;31493201;28;20057;-78
2023/09/17 23:27:30;;;;;;;18.13;8.98;;;;;;;22.18;82.38;101100.94;31475235;28;20059;-77
2023/09/17 23:42:32;;;;;;;;;;;;;;;22.28;90.05;101096.06;31469070;28;20040;-77
2023/09/17 23:57:35;;;;;;;15.38;8.75;;;;;;;22.24;84.23;101098.25;31490867;28;19927;-77
